createdAt,value
2019-03-03T00:01:23.325Z,11.28
2019-03-03T00:03:53.777Z,11.23
2019-03-03T00:06:23.430Z,11.24
2019-03-03T00:08:52.713Z,11.28
2019-03-03T00:11:22.028Z,11.40
2019-03-03T00:13:51.783Z,11.40
2019-03-03T00:16:21.124Z,11.23
2019-03-03T00:18:50.461Z,11.24
2019-03-03T00:21:20.242Z,11.29
2019-03-03T00:23:49.543Z,11.29
2019-03-03T00:26:18.825Z,11.24
2019-03-03T00:28:48.507Z,11.20
2019-03-03T00:31:20.105Z,11.14
2019-03-03T00:33:49.354Z,11.19
2019-03-03T00:36:19.555Z,11.25
2019-03-03T00:39:06.132Z,11.20
2019-03-03T00:41:57.760Z,11.25
2019-03-03T00:44:51.833Z,11.21
2019-03-03T00:47:43.314Z,11.28
2019-03-03T00:50:19.596Z,11.18
2019-03-03T00:52:54.905Z,11.18
2019-03-03T00:55:31.352Z,11.15
2019-03-03T00:58:25.713Z,11.02
2019-03-03T01:01:03.664Z,11.03
2019-03-03T01:03:42.478Z,11.10
2019-03-03T01:06:29.606Z,11.06
2019-03-03T01:09:12.490Z,11.13
2019-03-03T01:11:53.535Z,11.09
2019-03-03T01:15:00.351Z,11.11
2019-03-03T01:17:35.686Z,11.16
2019-03-03T01:20:12.861Z,11.20
2019-03-03T01:23:04.087Z,11.18
2019-03-03T01:25:39.942Z,11.14
2019-03-03T01:28:09.261Z,11.13
2019-03-03T01:30:38.552Z,11.13
2019-03-03T01:33:07.799Z,11.11
2019-03-03T01:35:37.242Z,11.16
2019-03-03T01:38:06.955Z,11.17
2019-03-03T01:40:36.200Z,11.19
2019-03-03T01:43:05.560Z,11.09
2019-03-03T01:45:35.168Z,11.08
2019-03-03T01:48:06.505Z,11.14
2019-03-03T01:50:35.769Z,11.20
2019-03-03T01:53:05.297Z,11.14
2019-03-03T01:55:34.537Z,11.21
2019-03-03T01:58:06.897Z,11.20
2019-03-03T02:00:36.479Z,11.21
2019-03-03T02:03:06.977Z,11.13
2019-03-03T02:05:36.713Z,11.10
2019-03-03T02:08:06.340Z,11.15
2019-03-03T02:10:35.602Z,11.15
2019-03-03T02:13:05.039Z,11.10
2019-03-03T02:15:34.790Z,11.09
2019-03-03T02:18:06.875Z,11.10
2019-03-03T02:20:36.182Z,11.08
2019-03-03T02:23:05.765Z,11.04
2019-03-03T02:25:35.004Z,11.03
2019-03-03T02:28:05.845Z,10.98
2019-03-03T02:30:35.468Z,10.91
2019-03-03T02:33:04.816Z,11.01
2019-03-03T02:35:34.130Z,10.90
2019-03-03T02:38:06.824Z,10.91
2019-03-03T02:40:36.084Z,11.01
2019-03-03T02:43:05.371Z,10.99
2019-03-03T02:45:34.985Z,10.97
2019-03-03T02:48:04.800Z,10.89
2019-03-03T02:50:34.119Z,10.94
2019-03-03T02:53:03.824Z,10.95
2019-03-03T02:55:33.092Z,10.98
2019-03-03T02:58:03.108Z,10.92
2019-03-03T03:00:33.797Z,10.91
2019-03-03T03:03:03.906Z,10.96
2019-03-03T03:05:50.475Z,10.90
2019-03-03T03:08:24.119Z,10.82
2019-03-03T03:11:10.891Z,10.68
2019-03-03T03:13:49.897Z,10.64
2019-03-03T03:16:25.338Z,10.74
2019-03-03T03:19:03.128Z,10.73
2019-03-03T03:21:39.791Z,10.58
2019-03-03T03:24:45.462Z,10.68
2019-03-03T03:27:35.762Z,10.67
2019-03-03T03:30:34.824Z,10.63
2019-03-03T03:33:21.557Z,10.71
2019-03-03T03:36:25.259Z,10.68
2019-03-03T03:39:09.544Z,10.64
2019-03-03T03:41:45.066Z,10.67
2019-03-03T03:44:43.462Z,10.67
2019-03-03T03:47:24.238Z,10.67
2019-03-03T03:50:12.486Z,10.72
2019-03-03T03:53:01.868Z,10.72
2019-03-03T03:55:56.222Z,10.71
2019-03-03T03:58:46.917Z,10.67
2019-03-03T04:01:23.865Z,10.67
2019-03-03T04:04:19.079Z,10.58
2019-03-03T04:07:07.267Z,10.55
2019-03-03T04:10:10.394Z,10.58
2019-03-03T04:12:58.697Z,10.56
2019-03-03T04:15:46.150Z,10.49
2019-03-03T04:18:22.458Z,10.62
2019-03-03T04:21:26.004Z,10.55
2019-03-03T04:24:09.440Z,10.62
2019-03-03T04:26:59.176Z,10.64
2019-03-03T04:29:35.898Z,10.57
2019-03-03T04:32:21.201Z,10.62
2019-03-03T04:35:15.474Z,10.70
2019-03-03T04:38:04.387Z,10.74
2019-03-03T04:40:54.003Z,10.66
2019-03-03T04:43:40.712Z,10.73
2019-03-03T04:46:29.147Z,10.73
2019-03-03T04:49:18.921Z,10.79
2019-03-03T04:52:04.503Z,10.87
2019-03-03T04:54:53.134Z,10.90
2019-03-03T04:57:44.428Z,10.85
2019-03-03T05:00:33.838Z,10.91
2019-03-03T05:03:26.829Z,10.89
2019-03-03T05:06:08.415Z,10.89
2019-03-03T05:09:02.584Z,10.99
2019-03-03T05:12:29.908Z,10.97
2019-03-03T05:15:05.093Z,11.02
2019-03-03T05:17:41.743Z,11.06
2019-03-03T05:20:11.309Z,10.98
2019-03-03T05:22:40.827Z,11.05
2019-03-03T05:25:10.467Z,11.07
2019-03-03T05:27:39.739Z,11.12
2019-03-03T05:30:09.042Z,11.18
2019-03-03T05:32:38.677Z,11.22
2019-03-03T05:35:09.526Z,11.12
2019-03-03T05:37:38.806Z,11.07
2019-03-03T05:40:08.456Z,11.09
2019-03-03T05:42:37.770Z,11.08
2019-03-03T05:45:07.140Z,11.17
2019-03-03T05:47:36.756Z,11.12
2019-03-03T05:50:09.071Z,11.17
2019-03-03T05:52:38.327Z,11.12
2019-03-03T05:55:07.993Z,11.23
2019-03-03T05:57:37.312Z,11.12
2019-03-03T06:00:07.013Z,11.26
2019-03-03T06:02:37.685Z,11.20
2019-03-03T06:05:07.192Z,11.16
2019-03-03T06:07:36.609Z,11.19
2019-03-03T06:10:11.545Z,11.17
2019-03-03T06:12:41.044Z,11.18
2019-03-03T06:15:13.039Z,11.12
2019-03-03T06:17:42.771Z,11.13
2019-03-03T06:20:12.614Z,11.11
2019-03-03T06:22:41.831Z,11.14
2019-03-03T06:25:12.668Z,11.15
2019-03-03T06:27:41.922Z,11.22
2019-03-03T06:30:12.681Z,11.23
2019-03-03T06:32:42.323Z,11.23
2019-03-03T06:35:11.763Z,11.26
2019-03-03T06:37:41.000Z,11.25
2019-03-03T06:40:11.039Z,11.30
2019-03-03T06:42:40.277Z,11.31
2019-03-03T06:45:10.926Z,11.23
2019-03-03T06:47:40.504Z,11.23
2019-03-03T06:50:11.254Z,11.21
2019-03-03T06:52:40.560Z,11.20
2019-03-03T06:55:10.532Z,11.23
2019-03-03T06:57:39.925Z,11.21
2019-03-03T07:00:12.697Z,11.27
2019-03-03T07:02:42.267Z,11.14
2019-03-03T07:05:11.692Z,11.24
2019-03-03T07:07:41.199Z,11.33
2019-03-03T07:10:14.375Z,11.25
2019-03-03T07:12:43.668Z,11.41
2019-03-03T07:15:14.608Z,11.31
2019-03-03T07:17:44.254Z,11.37
2019-03-03T07:20:14.084Z,11.40
2019-03-03T07:22:43.408Z,11.49
2019-03-03T07:25:13.242Z,11.49
2019-03-03T07:27:42.592Z,11.32
2019-03-03T07:30:13.463Z,11.42
2019-03-03T07:33:01.920Z,11.49
2019-03-03T07:35:31.179Z,11.39
2019-03-03T07:38:00.723Z,11.39
2019-03-03T07:40:30.021Z,11.48
2019-03-03T07:42:59.308Z,11.58
2019-03-03T07:45:28.825Z,11.57
2019-03-03T07:47:58.529Z,11.53
2019-03-03T07:50:27.866Z,11.51
2019-03-03T07:52:57.387Z,11.52
2019-03-03T07:55:26.752Z,11.53
2019-03-03T07:57:56.529Z,11.44
2019-03-03T08:00:26.070Z,11.52
2019-03-03T08:02:55.360Z,11.50
2019-03-03T08:05:24.619Z,11.56
2019-03-03T08:07:54.191Z,11.62
2019-03-03T08:10:23.486Z,11.64
2019-03-03T08:12:52.739Z,11.69
2019-03-03T08:15:22.292Z,11.79
2019-03-03T08:17:51.578Z,11.75
2019-03-03T08:20:20.847Z,11.77
2019-03-03T08:22:50.407Z,11.84
2019-03-03T08:25:19.709Z,12.03
2019-03-03T08:27:48.968Z,11.94
2019-03-03T08:30:18.515Z,11.92
2019-03-03T08:32:47.862Z,12.06
2019-03-03T08:35:17.104Z,11.96
2019-03-03T08:37:46.734Z,12.01
2019-03-03T08:40:16.070Z,11.98
2019-03-03T08:43:00.864Z,12.03
2019-03-03T08:45:55.376Z,12.04
2019-03-03T08:48:35.590Z,11.96
2019-03-03T08:51:11.591Z,11.98
2019-03-03T08:54:05.791Z,11.92
2019-03-03T08:57:08.943Z,11.97
2019-03-03T09:00:03.414Z,12.11
2019-03-03T09:02:50.001Z,12.01
2019-03-03T09:05:26.623Z,12.01
2019-03-03T09:08:12.972Z,11.96
2019-03-03T09:11:04.419Z,12.02
2019-03-03T09:13:49.242Z,12.04
2019-03-03T09:16:32.479Z,11.99
2019-03-03T09:19:19.081Z,12.03
2019-03-03T09:21:58.108Z,12.12
2019-03-03T09:24:46.361Z,12.12
2019-03-03T09:27:36.133Z,12.20
2019-03-03T09:30:30.916Z,12.29
2019-03-03T09:33:19.380Z,12.36
2019-03-03T09:36:13.663Z,12.38
2019-03-03T09:39:05.639Z,12.32
2019-03-03T09:42:08.670Z,12.23
2019-03-03T09:44:49.378Z,12.35
2019-03-03T09:47:30.471Z,12.23
2019-03-03T09:50:25.946Z,12.26
2019-03-03T09:53:32.102Z,12.23
2019-03-03T09:56:13.994Z,12.22
2019-03-03T09:59:00.529Z,12.38
2019-03-03T10:01:44.128Z,12.39
2019-03-03T10:04:23.016Z,12.31
2019-03-03T10:07:17.476Z,12.32
2019-03-03T10:09:57.794Z,12.39
2019-03-03T10:12:46.391Z,12.43
2019-03-03T10:15:50.082Z,12.48
2019-03-03T10:18:38.649Z,12.42
2019-03-03T10:21:32.955Z,12.28
2019-03-03T10:24:13.874Z,12.35
2019-03-03T10:27:11.410Z,12.42
2019-03-03T10:29:54.749Z,12.36
2019-03-03T10:32:38.370Z,12.34
2019-03-03T10:35:30.369Z,12.38
2019-03-03T10:38:19.472Z,12.45
2019-03-03T10:41:08.232Z,12.47
2019-03-03T10:43:47.659Z,12.47
2019-03-03T10:46:54.363Z,12.42
2019-03-03T10:49:34.105Z,12.51
2019-03-03T10:52:10.849Z,12.48
2019-03-03T10:54:49.430Z,12.45
2019-03-03T10:57:56.479Z,12.47
2019-03-03T11:00:47.718Z,12.43
2019-03-03T11:03:39.036Z,12.50
2019-03-03T11:06:45.839Z,12.50
2019-03-03T11:09:31.719Z,12.73
2019-03-03T11:12:30.637Z,12.93
2019-03-03T11:15:22.112Z,13.00
2019-03-03T11:18:26.600Z,13.08
2019-03-03T11:21:24.119Z,13.08
2019-03-03T11:24:00.030Z,13.08
2019-03-03T11:27:00.745Z,13.03
2019-03-03T11:29:55.334Z,12.98
2019-03-03T11:32:42.658Z,12.99
2019-03-03T11:35:29.942Z,13.10
2019-03-03T11:38:37.568Z,13.08
2019-03-03T11:41:24.775Z,13.03
2019-03-03T11:44:04.481Z,12.95
2019-03-03T11:46:53.091Z,13.02
2019-03-03T11:49:44.928Z,12.88
2019-03-03T11:52:29.354Z,12.90
2019-03-03T11:55:24.269Z,12.90
2019-03-03T11:58:21.729Z,12.98
2019-03-03T12:01:13.806Z,12.90
2019-03-03T12:04:08.463Z,13.00
2019-03-03T12:07:06.263Z,12.96
2019-03-03T12:09:58.066Z,13.09
2019-03-03T12:12:53.474Z,13.17
2019-03-03T12:15:34.944Z,13.13
2019-03-03T12:18:24.777Z,13.12
2019-03-03T12:21:12.220Z,13.13
2019-03-03T12:23:59.366Z,13.11
2019-03-03T12:27:04.329Z,13.09
2019-03-03T12:29:56.495Z,13.11
2019-03-03T12:32:35.268Z,13.19
2019-03-03T12:35:39.448Z,13.10
2019-03-03T12:38:26.750Z,13.07
2019-03-03T12:41:15.113Z,13.14
2019-03-03T12:44:00.910Z,13.08
2019-03-03T12:46:45.906Z,13.04
2019-03-03T12:49:26.979Z,13.05
2019-03-03T12:52:17.839Z,13.10
2019-03-03T12:55:18.473Z,13.14
2019-03-03T12:58:13.570Z,13.21
2019-03-03T13:01:04.549Z,13.24
2019-03-03T13:03:46.209Z,13.19
2019-03-03T13:06:40.695Z,13.21
2019-03-03T13:09:20.514Z,13.20
2019-03-03T13:12:15.418Z,13.29
2019-03-03T13:15:05.265Z,13.34
2019-03-03T13:17:53.875Z,13.40
2019-03-03T13:20:33.248Z,13.32
2019-03-03T13:23:20.408Z,13.35
2019-03-03T13:26:15.061Z,13.40
2019-03-03T13:29:06.563Z,13.46
2019-03-03T13:32:01.241Z,13.49
2019-03-03T13:34:48.519Z,13.42
2019-03-03T13:37:35.759Z,13.49
2019-03-03T13:40:40.261Z,13.48
2019-03-03T13:43:10.355Z,13.43
2019-03-03T13:45:40.147Z,13.35
2019-03-03T13:48:13.031Z,13.29
2019-03-03T13:50:44.781Z,13.36
2019-03-03T13:53:14.531Z,13.26
2019-03-03T13:55:44.296Z,13.32
2019-03-03T13:58:14.487Z,13.29
2019-03-03T14:00:44.464Z,13.25
2019-03-03T14:03:14.179Z,13.32
2019-03-03T14:05:44.417Z,13.36
2019-03-03T14:08:14.156Z,13.51
2019-03-03T14:10:44.994Z,13.51
2019-03-03T14:13:15.120Z,13.70
2019-03-03T14:15:45.129Z,13.90
2019-03-03T14:18:14.792Z,14.00
2019-03-03T14:20:51.487Z,13.73
2019-03-03T14:23:21.250Z,13.68
2019-03-03T14:25:52.270Z,13.68
2019-03-03T14:28:22.033Z,13.71
2019-03-03T14:30:51.885Z,13.72
2019-03-03T14:33:21.967Z,13.80
2019-03-03T14:35:52.126Z,13.86
2019-03-03T14:38:21.810Z,13.96
2019-03-03T14:40:55.038Z,13.82
2019-03-03T14:43:24.807Z,13.76
2019-03-03T14:45:54.500Z,13.79
2019-03-03T14:48:24.709Z,13.67
2019-03-03T14:50:56.870Z,13.62
2019-03-03T14:53:26.155Z,13.67
2019-03-03T14:55:56.442Z,13.71
2019-03-03T14:58:26.352Z,13.63
2019-03-03T15:00:56.486Z,13.59
2019-03-03T15:03:26.380Z,13.48
2019-03-03T15:05:56.411Z,13.48
2019-03-03T15:08:26.491Z,13.52
2019-03-03T15:10:56.340Z,13.66
2019-03-03T15:13:26.286Z,13.63
2019-03-03T15:16:05.335Z,13.61
2019-03-03T15:18:35.160Z,13.61
2019-03-03T15:21:05.499Z,13.66
2019-03-03T15:23:35.224Z,13.68
2019-03-03T15:26:07.918Z,13.73
2019-03-03T15:28:37.843Z,13.68
2019-03-03T15:31:07.854Z,13.75
2019-03-03T15:33:38.655Z,13.73
2019-03-03T15:36:11.358Z,13.80
2019-03-03T15:38:42.009Z,13.72
2019-03-03T15:41:11.760Z,13.70
2019-03-03T15:43:41.493Z,13.69
2019-03-03T15:46:11.817Z,13.70
2019-03-03T15:48:41.502Z,13.79
2019-03-03T15:51:11.281Z,13.76
2019-03-03T15:53:41.542Z,13.80
2019-03-03T15:56:11.952Z,13.80
2019-03-03T15:58:41.772Z,13.82
2019-03-03T16:01:15.907Z,13.86
2019-03-03T16:03:45.917Z,13.83
2019-03-03T16:06:15.759Z,13.84
2019-03-03T16:08:47.221Z,13.83
2019-03-03T16:11:17.042Z,13.72
2019-03-03T16:13:46.909Z,13.82
2019-03-03T16:16:17.116Z,13.78
2019-03-03T16:18:48.317Z,13.86
2019-03-03T16:21:18.164Z,13.71
2019-03-03T16:23:48.357Z,13.64
2019-03-03T16:26:18.040Z,13.64
2019-03-03T16:28:47.805Z,13.64
2019-03-03T16:31:17.686Z,13.70
2019-03-03T16:33:50.073Z,13.70
2019-03-03T16:36:20.415Z,13.67
2019-03-03T16:38:50.249Z,13.67
2019-03-03T16:41:20.057Z,13.60
2019-03-03T16:43:49.884Z,13.66
2019-03-03T16:46:19.704Z,13.68
2019-03-03T16:48:49.837Z,13.73
2019-03-03T16:51:22.102Z,13.63
2019-03-03T16:53:53.940Z,13.71
2019-03-03T16:56:23.924Z,13.70
2019-03-03T16:58:53.738Z,13.76
2019-03-03T17:01:23.564Z,13.69
2019-03-03T17:03:53.861Z,13.67
2019-03-03T17:06:26.146Z,13.67
2019-03-03T17:08:59.177Z,13.63
2019-03-03T17:11:29.112Z,13.65
2019-03-03T17:13:59.738Z,13.67
2019-03-03T17:16:29.822Z,13.65
2019-03-03T17:18:59.591Z,13.76
2019-03-03T17:21:29.523Z,13.73
2019-03-03T17:24:00.328Z,13.72
2019-03-03T17:26:30.203Z,13.69
2019-03-03T17:29:00.125Z,13.74
2019-03-03T17:31:30.433Z,13.81
2019-03-03T17:34:00.570Z,13.78
2019-03-03T17:36:30.439Z,13.77
2019-03-03T17:39:00.536Z,13.76
2019-03-03T17:41:30.250Z,13.76
2019-03-03T17:44:00.666Z,13.71
2019-03-03T17:46:38.777Z,13.73
2019-03-03T17:49:08.683Z,13.61
2019-03-03T17:51:38.634Z,13.72
2019-03-03T17:54:08.896Z,13.74
2019-03-03T17:56:39.046Z,13.75
2019-03-03T17:59:08.889Z,13.67
2019-03-03T18:01:38.832Z,13.67
2019-03-03T18:04:08.642Z,13.54
2019-03-03T18:06:39.058Z,13.47
2019-03-03T18:09:11.398Z,13.54
2019-03-03T18:11:41.321Z,13.53
2019-03-03T18:14:11.171Z,13.59
2019-03-03T18:16:41.581Z,13.55
2019-03-03T18:19:11.645Z,13.55
2019-03-03T18:21:42.281Z,13.57
2019-03-03T18:24:12.546Z,13.55
2019-03-03T18:26:43.277Z,13.60
2019-03-03T18:29:13.017Z,13.57
2019-03-03T18:31:43.170Z,13.47
2019-03-03T18:34:12.958Z,13.50
2019-03-03T18:36:42.740Z,13.44
2019-03-03T18:39:13.290Z,13.39
2019-03-03T18:41:44.445Z,13.48
2019-03-03T18:44:14.451Z,13.41
2019-03-03T18:46:45.713Z,13.37
2019-03-03T18:49:15.690Z,13.32
2019-03-03T18:51:46.805Z,13.30
2019-03-03T18:54:17.050Z,13.33
2019-03-03T18:56:47.601Z,13.37
2019-03-03T18:59:17.323Z,13.33
2019-03-03T19:01:47.631Z,13.32
2019-03-03T19:04:17.460Z,13.38
2019-03-03T19:06:48.904Z,13.35
2019-03-03T19:09:21.356Z,13.36
2019-03-03T19:11:57.020Z,13.31
2019-03-03T19:14:28.828Z,13.26
2019-03-03T19:17:00.856Z,13.25
2019-03-03T19:19:32.535Z,13.29
2019-03-03T19:22:04.827Z,13.34
2019-03-03T19:24:37.167Z,13.30
2019-03-03T19:27:10.052Z,13.25
2019-03-03T19:29:40.308Z,13.27
2019-03-03T19:32:10.440Z,13.23
2019-03-03T19:34:40.614Z,13.18
2019-03-03T19:37:10.716Z,13.20
2019-03-03T19:39:40.893Z,13.19
2019-03-03T19:42:18.552Z,13.16
2019-03-03T19:44:48.359Z,13.20
2019-03-03T19:47:20.601Z,13.26
2019-03-03T19:49:50.727Z,13.16
2019-03-03T19:52:20.881Z,13.10
2019-03-03T19:54:51.334Z,13.12
2019-03-03T19:57:22.609Z,13.12
2019-03-03T19:59:52.489Z,13.06
2019-03-03T20:02:22.402Z,13.08
2019-03-03T20:04:52.528Z,13.09
2019-03-03T20:07:22.295Z,13.04
2019-03-03T20:09:52.876Z,13.11
2019-03-03T20:12:23.049Z,13.01
2019-03-03T20:14:52.778Z,12.97
2019-03-03T20:17:22.514Z,12.97
2019-03-03T20:19:52.707Z,12.93
2019-03-03T20:22:22.490Z,12.88
2019-03-03T20:24:54.372Z,12.81
2019-03-03T20:27:25.710Z,12.98
2019-03-03T20:29:55.932Z,12.89
2019-03-03T20:32:25.745Z,12.91
2019-03-03T20:34:55.882Z,12.96
2019-03-03T20:37:25.695Z,12.91
2019-03-03T20:39:55.420Z,12.91
2019-03-03T20:42:25.630Z,12.95
2019-03-03T20:44:55.642Z,12.97
2019-03-03T20:47:25.459Z,12.97
2019-03-03T20:49:55.564Z,13.04
2019-03-03T20:52:28.742Z,12.97
2019-03-03T20:54:58.539Z,12.98
2019-03-03T20:57:29.749Z,12.92
2019-03-03T21:00:00.378Z,12.97
2019-03-03T21:02:30.095Z,12.94
2019-03-03T21:05:00.430Z,12.95
2019-03-03T21:07:30.240Z,12.91
2019-03-03T21:10:00.375Z,13.01
2019-03-03T21:12:30.476Z,12.98
2019-03-03T21:15:00.315Z,13.11
2019-03-03T21:17:30.059Z,13.12
2019-03-03T21:20:00.411Z,12.98
2019-03-03T21:22:30.125Z,13.04
2019-03-03T21:24:59.819Z,12.96
2019-03-03T21:27:30.049Z,12.98
2019-03-03T21:29:59.970Z,13.00
2019-03-03T21:32:29.716Z,13.09
2019-03-03T21:35:01.370Z,12.99
2019-03-03T21:37:31.052Z,13.02
2019-03-03T21:40:00.973Z,13.05
2019-03-03T21:42:31.096Z,13.14
2019-03-03T21:45:00.756Z,13.17
2019-03-03T21:47:30.444Z,13.18
2019-03-03T21:50:00.514Z,13.15
2019-03-03T21:52:31.834Z,13.08
2019-03-03T21:55:03.906Z,12.97
2019-03-03T21:57:34.046Z,13.02
2019-03-03T22:00:04.214Z,13.09
2019-03-03T22:02:33.660Z,13.08
2019-03-03T22:05:03.603Z,13.08
2019-03-03T22:07:32.960Z,13.10
2019-03-03T22:10:03.366Z,13.08
2019-03-03T22:12:33.232Z,13.12
2019-03-03T22:15:02.539Z,13.05
2019-03-03T22:17:31.862Z,13.00
2019-03-03T22:20:03.576Z,12.98
2019-03-03T22:22:32.598Z,12.91
2019-03-03T22:25:02.003Z,13.00
2019-03-03T22:27:36.156Z,12.96
2019-03-03T22:30:07.333Z,13.08
2019-03-03T22:32:36.643Z,13.01
2019-03-03T22:35:06.375Z,13.03
2019-03-03T22:37:36.231Z,13.08
2019-03-03T22:40:09.199Z,12.96
2019-03-03T22:42:40.047Z,12.87
2019-03-03T22:45:10.673Z,12.96
2019-03-03T22:47:40.032Z,12.98
2019-03-03T22:50:10.725Z,12.89
2019-03-03T22:52:40.006Z,12.83
2019-03-03T22:55:09.899Z,12.85
2019-03-03T22:57:39.770Z,12.79
2019-03-03T23:00:44.306Z,12.85
2019-03-03T23:03:16.007Z,12.84
2019-03-03T23:06:15.308Z,12.85
2019-03-03T23:08:53.526Z,12.87
2019-03-03T23:12:04.567Z,12.83
2019-03-03T23:14:55.335Z,12.87
2019-03-03T23:18:00.017Z,12.78
2019-03-03T23:20:41.393Z,12.67
2019-03-03T23:23:57.081Z,12.63
2019-03-03T23:26:26.815Z,12.70
2019-03-03T23:28:56.095Z,12.66
2019-03-03T23:31:25.364Z,12.68
2019-03-03T23:33:55.156Z,12.57
2019-03-03T23:36:24.365Z,12.54
2019-03-03T23:38:53.859Z,12.58
2019-03-03T23:41:23.538Z,12.59
2019-03-03T23:43:52.861Z,12.65
2019-03-03T23:46:22.070Z,12.61
2019-03-03T23:48:51.861Z,12.60
2019-03-03T23:51:21.777Z,12.58
2019-03-03T23:53:51.072Z,12.68
2019-03-03T23:56:20.793Z,12.60
2019-03-03T23:58:50.055Z,12.74
